• Join FlightAware (Why Join?)
  • Login
  • US Flag 
08:05AM EDT


 

Airport Tracker/Info


-or-


 

Live Flight TrackerFlight Track Log ✈ UAL4553 ✈ 24-Apr-2013 ✈ KRDU - KIAH

Flight Track Log - Related Links

Times and Time Zones

All times are in EDT time to prevent confusion due to time zone crossing. See the UAL4553 flight status page for this flight to view local times or setup timezone preferences in your user account.

Time Position Orientation Groundspeed Altitude Reporting Facility
EDT Latitude Longitude Course Direction KTS MPH feet Rate Location/Type
01:48PM 35.8561 -78.8083 270° West 160 184 900  Level Washington Center
01:49PM 35.8389 -78.8281 223° Southwest 161 185 1,900 1,860 Climbing Washington Center
01:50PM 35.8292 -78.8842 258° West 215 247 3,800 1,860 Climbing Washington Center
01:50PM 35.8406 -78.9203 291° West 221 254 4,900 2,220 Climbing Washington Center
01:51PM 35.8389 -78.9869 268° West 208 239 7,300 2,280 Climbing Washington Center
01:52PM 35.8373 -79.2434 263° West  Level FlightAware Approximate
01:52PM 35.8389 -79.0586 270° West 203 234 9,500  Level Washington Center
01:53PM 35.8269 -79.3583 262° West  Level FlightAware Approximate
01:53PM 35.8383 -79.1458 270° West 235 270 10,200  Level Washington Center
01:54PM 35.8167 -79.4732 270° West  Level FlightAware Approximate
01:54PM 35.8353 -79.2431 268° West 291 335 11,400  Level Washington Center
01:56PM 35.8236 -79.4314 266° West 343 395 14,200 1,740 Climbing Atlanta Center
01:57PM 35.8175 -79.5419 266° West 343 395 15,900 1,440 Climbing Atlanta Center
01:58PM 35.8000 -79.6400 258° West 343 395 17,100 1,260 Climbing Atlanta Center
01:59PM 35.7792 -79.7539 257° West 337 388 18,500 1,440 Climbing Atlanta Center
02:00PM 35.7600 -79.8650 258° West 337 388 20,000 1,560 Climbing Atlanta Center
02:01PM 35.7389 -79.9811 257° West 337 388 21,700 1,680 Climbing Atlanta Center
02:02PM 35.7175 -80.0997 258° West 337 388 23,400 1,620 Climbing Atlanta Center
02:03PM 35.7003 -80.2106 259° West 337 388 25,000 1,440 Climbing Atlanta Center
02:04PM 35.6806 -80.3111 256° West 337 388 26,300 1,320 Climbing Atlanta Center
02:05PM 35.6628 -80.4194 259° West 337 388 27,700 1,380 Climbing Atlanta Center
02:06PM 35.6325 -80.5231 250° West 330 380 29,100 1,200 Climbing Atlanta Center
02:07PM 35.5914 -80.6217 243° Southwest 323 372 30,100 720 Climbing Atlanta Center
02:08PM 35.5444 -80.7333 243° Southwest 333 383 30,600 660 Climbing Atlanta Center
02:09PM 35.4992 -80.8372 242° Southwest 340 391 31,500 900 Climbing Atlanta Center
02:10PM 35.4539 -80.9461 243° Southwest 346 398 32,500 960 Climbing Atlanta Center
02:11PM 35.4086 -81.0497 242° Southwest 356 410 33,500 720 Climbing Atlanta Center
02:12PM 35.3631 -81.1583 243° Southwest 356 410 34,000 240 Climbing Atlanta Center
02:13PM 35.3194 -81.2567 241° Southwest 356 410 34,000  Level Atlanta Center
02:14PM 35.2719 -81.3728 243° Southwest 366 421 34,000 420 Level Atlanta Center
02:15PM 35.2244 -81.4861 243° Southwest 381 438 34,900 900 Climbing Atlanta Center
02:16PM 35.1767 -81.5994 243° Southwest 376 433 35,900 540 Climbing Atlanta Center
02:17PM 35.1286 -81.7075 241° Southwest 367 422 36,000  Climbing Atlanta Center
02:18PM 35.0767 -81.8308 243° Southwest 372 428 36,000  Level Atlanta Center
02:19PM 35.0328 -81.9486 246° West 372 428 36,000  Level Atlanta Center
02:20PM 35.0306 -82.0731 269° West 360 414 36,000  Level Atlanta Center
02:21PM 35.0306 -82.1922 270° West 367 422 36,000  Level Atlanta Center
02:22PM 35.0303 -82.3139 270° West 362 417 36,000  Level Atlanta Center
02:23PM 35.0278 -82.4408 269° West 362 417 36,000  Level Atlanta Center
02:24PM 35.0272 -82.5678 270° West 368 423 36,000  Level Atlanta Center
02:25PM 35.0244 -82.6944 269° West 368 423 36,000  Level Atlanta Center
02:26PM 35.0217 -82.8189 268° West 373 429 36,000  Level Atlanta Center
02:27PM 35.0186 -82.9456 268° West 373 429 36,000  Level Atlanta Center
02:28PM 35.0175 -83.0725 269° West 379 436 36,000  Level Atlanta Center
02:29PM 35.0144 -83.2019 268° West 384 442 36,000  Level Atlanta Center
02:30PM 35.0131 -83.3311 269° West 384 442 36,000  Level Atlanta Center
02:31PM 35.0117 -83.4581 269° West 379 436 36,000  Level Atlanta Center
02:32PM 35.0058 -83.5847 267° West 385 443 36,000  Level Atlanta Center
02:33PM 35.0022 -83.7067 268° West 380 437 36,000  Level Atlanta Center
02:34PM 34.9628 -83.8233 248° West 367 422 36,000  Level Atlanta Center
02:35PM 34.9150 -83.9350 242° Southwest 367 422 36,000  Level Atlanta Center
02:36PM 34.8692 -84.0489 244° Southwest 373 429 36,000  Level Atlanta Center
02:37PM 34.8253 -84.1578 244° Southwest 373 429 36,000  Level Atlanta Center
02:38PM 34.7833 -84.2664 245° Southwest 362 417 36,000  Level Atlanta Center
02:39PM 34.7392 -84.3700 243° Southwest 357 411 36,000  Level Atlanta Center
02:40PM 34.6972 -84.4758 244° Southwest 352 405 36,000  Level Atlanta Center
02:41PM 34.6572 -84.5792 245° Southwest 345 397 36,000  Level Atlanta Center
02:42PM 34.6150 -84.6825 244° Southwest 345 397 36,000  Level Atlanta Center
02:43PM 34.5769 -84.7756 244° Southwest 345 397 36,000  Level Atlanta Center
02:44PM 34.5344 -84.8733 242° Southwest 336 387 36,000  Level Atlanta Center
02:45PM 34.4942 -84.9764 245° Southwest 336 387 36,000  Level Atlanta Center
02:46PM 34.4536 -85.0767 244° Southwest 336 387 36,000  Level Atlanta Center
02:47PM 34.4047 -85.1817 241° Southwest 336 387 36,000  Level Atlanta Center
02:48PM 34.3683 -85.2744 245° Southwest 341 392 36,000  Level Atlanta Center
02:49PM 34.3275 -85.3719 243° Southwest 336 387 36,000  Level Atlanta Center
02:50PM 34.2847 -85.4744 243° Southwest 336 387 36,000  Level Atlanta Center
02:51PM 34.2417 -85.5767 243° Southwest 336 387 36,000  Level Atlanta Center
02:52PM 34.1944 -85.6889 243° Southwest 341 392 36,000  Level Atlanta Center
02:53PM 34.1511 -85.7933 243° Southwest 341 392 36,000  Level Atlanta Center
02:54PM 34.1061 -85.8853 239° Southwest 346 398 36,000  Level Atlanta Center
02:55PM 34.0606 -85.9947 243° Southwest 353 406 36,000  Level Atlanta Center
02:56PM 34.0150 -86.1039 243° Southwest 364 419 36,000  Level Atlanta Center
02:57PM 33.9669 -86.2153 243° Southwest 364 419 36,000  Level Atlanta Center
02:58PM 33.9172 -86.3242 241° Southwest 364 419 36,000  Level Atlanta Center
02:59PM 33.8711 -86.4331 243° Southwest 369 425 36,000  Level Atlanta Center
03:00PM 33.8208 -86.5442 241° Southwest 369 425 36,000  Level Atlanta Center
03:01PM 33.7750 -86.6528 243° Southwest 369 425 36,000  Level Atlanta Center
03:02PM 33.7289 -86.7589 242° Southwest 362 417 36,000  Level Atlanta Center
03:03PM 33.6825 -86.8647 242° Southwest 362 417 36,000  Level Atlanta Center
03:04PM 33.6425 -86.9733 246° West 362 417 36,000  Level Atlanta Center
03:05PM 33.6042 -87.0867 248° West 362 417 36,000  Level Atlanta Center
03:06PM 33.5661 -87.1950 247° West 362 417 36,000  Level Atlanta Center
03:08PM 33.4967 -87.4003 248° West 363 418 36,000  Level Memphis Center
03:09PM 33.4617 -87.5036 248° West 363 418 36,000  Level Memphis Center
03:10PM 33.4244 -87.6169 249° West 363 418 36,000  Level Memphis Center
03:11PM 33.3831 -87.7325 247° West 368 423 36,000  Level Memphis Center
03:12PM 33.3436 -87.8431 247° West 368 423 36,000  Level Memphis Center
03:13PM 33.3042 -87.9611 248° West 380 437 36,000  Level Memphis Center
03:14PM 33.2606 -88.0767 246° West 380 437 36,000  Level Memphis Center
03:15PM 33.2228 -88.1917 249° West 380 437 36,000  Level Memphis Center
03:16PM 33.1833 -88.3169 249° West 375 432 36,000  Level Memphis Center
03:17PM 33.1414 -88.4319 246° West 375 432 36,000  Level Memphis Center
03:18PM 33.0992 -88.5469 246° West 380 437 36,000  Level Memphis Center
03:19PM 33.0611 -88.6592 248° West 380 437 36,000  Level Memphis Center
03:20PM 33.0208 -88.7717 247° West 380 437 36,000  Level Memphis Center
03:21PM 32.9806 -88.8839 247° West 375 432 36,000  Level Memphis Center
03:22PM 32.9400 -88.9958 247° West 380 437 36,000  Level Memphis Center
03:23PM 32.8972 -89.1103 246° West 380 437 36,000  Level Memphis Center
03:24PM 32.8547 -89.2272 247° West 380 437 36,000  Level Memphis Center
03:25PM 32.8117 -89.3414 246° West 380 437 36,000  Level Memphis Center
03:26PM 32.7667 -89.4506 244° Southwest 380 437 36,000  Level Memphis Center
03:27PM 32.7131 -89.5597 240° Southwest 375 432 36,000  Level Memphis Center
03:28PM 32.6617 -89.6714 241° Southwest 382 440 36,000  Level Memphis Center
03:29PM 32.6058 -89.7803 239° Southwest 387 445 36,000  Level Memphis Center
03:30PM 32.5561 -89.8889 242° Southwest 387 445 36,000  Level Memphis Center
03:31PM 32.5022 -89.9978 240° Southwest 387 445 36,000  Level Memphis Center
03:32PM 32.4503 -90.1061 240° Southwest 387 445 36,000  Level Memphis Center
03:33PM 32.3964 -90.2147 240° Southwest 387 445 36,000  Level Memphis Center
03:34PM 32.3461 -90.3228 241° Southwest 387 445 36,000  Level Memphis Center
03:35PM 32.2750 -90.4708 240° Southwest 375 432 36,000  Level Houston Center
03:36PM 32.2236 -90.5778 240° Southwest 374 430 36,000  Level Houston Center
03:37PM 32.1608 -90.7053 240° Southwest 375 432 36,000  Level Houston Center
03:38PM 32.1086 -90.8117 240° Southwest 378 435 36,000  Level Houston Center
03:39PM 32.0550 -90.9194 240° Southwest 380 437 36,000  Level Houston Center
03:40PM 32.0031 -91.0289 241° Southwest 382 440 36,000  Level Houston Center
03:41PM 31.9461 -91.1375 238° Southwest 391 450 36,000  Level Houston Center
03:42PM 31.8800 -91.2672 239° Southwest 387 445 36,000  Level Houston Center
03:43PM 31.8269 -91.3772 240° Southwest 387 445 36,000  Level Houston Center
03:44PM 31.7706 -91.4847 238° Southwest 388 447 36,000  Level Houston Center
03:46PM 31.7175 -91.5931 240° Southwest 384 442 36,000  Level Houston Center
03:47PM 31.6631 -91.7017 240° Southwest 386 444 36,000  Level Houston Center
03:48PM 31.6089 -91.8083 239° Southwest 382 440 36,000  Level Houston Center
03:49PM 31.5439 -91.9381 240° Southwest 386 444 36,000  Level Houston Center
03:50PM 31.4917 -92.0389 239° Southwest 385 443 36,000  Level Houston Center
03:51PM 31.4375 -92.1453 239° Southwest 383 441 36,000  Level Houston Center
03:52PM 31.3833 -92.2519 239° Southwest 384 442 36,000  Level Houston Center
03:53PM 31.3181 -92.3789 239° Southwest 380 437 36,000  Level Houston Center
03:54PM 31.2617 -92.4864 238° Southwest 387 445 36,000  Level Houston Center
03:55PM 31.2036 -92.5917 237° Southwest 386 444 36,000  Level Houston Center
03:56PM 31.1467 -92.6967 238° Southwest 385 443 36,000  Level Houston Center
03:57PM 31.0881 -92.8011 237° Southwest 385 443 36,000 -300 Level Houston Center
03:58PM 31.0297 -92.9047 237° Southwest 383 441 35,500 -780 Descending Houston Center
03:59PM 30.9636 -93.0231 237° Southwest 367 422 34,400 -1,020 Descending Houston Center
04:00PM 30.9075 -93.1211 236° Southwest 365 420 33,400 -960 Descending Houston Center
04:01PM 30.8533 -93.2183 237° Southwest 361 415 32,400 -960 Descending Houston Center
04:02PM 30.7956 -93.3222 237° Southwest 377 434 31,500 -960 Descending Houston Center
04:03PM 30.7333 -93.4319 237° Southwest 401 461 30,500 -1,080 Descending Houston Center
04:04PM 30.6575 -93.5653 237° Southwest 414 476 29,300 -1,800 Descending Houston Center
04:06PM 30.5752 -93.6829 240° Southwest  Level FlightAware Approximate
04:06PM 30.5336 -93.7803 240° Southwest 406 467 25,000  Level Houston Center
04:07PM 30.4739 -93.8858 237° Southwest 398 458 23,900 -2,160 Descending Houston Center
04:08PM 30.4025 -94.0083 236° Southwest 387 445 20,600 -2,640 Descending Houston Center
04:09PM 30.3453 -94.1081 236° Southwest 376 433 18,400 -2,280 Descending Houston Center
04:10PM 30.3144 -94.1603 236° Southwest 365 420 17,100 -2,760 Descending Houston Center
04:10PM 30.2903 -94.2036 237° Southwest 361 415 15,600 -3,180 Descending Houston Center
04:11PM 30.2569 -94.2575 234° Southwest 351 404 13,900 -2,760 Descending Houston Center
04:11PM 30.2361 -94.2964 238° Southwest 351 404 12,800 -1,920 Descending Houston Center
04:12PM 30.2033 -94.3517 236° Southwest 344 396 12,000 -900 Descending Houston Center
04:12PM 30.1936 -94.3892 253° West 335 386 11,900 -660 Descending Houston Center
04:13PM 30.1828 -94.4414 257° West 296 341 11,400 -1,200 Descending Houston Center
04:13PM 30.1744 -94.4911 259° West 297 342 10,700 -1,500 Descending Houston Center
04:14PM 30.1681 -94.5281 259° West 271 312 9,900 -1,860 Descending Houston Center
04:15PM 30.1606 -94.5742 259° West 273 314 8,800 -1,860 Descending Houston Center
04:15PM 30.1489 -94.6103 250° West 264 304 8,000 -780 Descending Houston Center
04:16PM 30.1331 -94.6539 247° West 269 310 8,000 -480 Level Houston Center
04:16PM 30.1069 -94.6978 235° Southwest 273 314 7,500 -1,260 Descending Houston Center
04:17PM 30.0906 -94.7269 237° Southwest 271 312 6,700 -1,680 Descending Houston Center
04:17PM 30.0656 -94.7708 237° Southwest 270 311 5,800 -1,680 Descending Houston Center
04:18PM 30.0436 -94.8158 241° Southwest 271 312 5,000 -840 Descending Houston Center
04:18PM 30.0264 -94.8458 236° Southwest 270 311 5,000 -540 Level Houston Center
04:19PM 30.0044 -94.8878 239° Southwest 267 307 4,500 -1,020 Descending Houston Center
04:19PM 29.9939 -94.9222 251° West 271 312 4,000 -540 Descending Houston Center
04:20PM 29.9944 -94.9714 271° West 266 306 4,000  Level Houston Center
04:20PM 29.9919 -95.0142 266° West 267 307 4,000  Level Houston Center
04:21PM 29.9936 -95.0583 273° West 272 313 4,000 -120 Level Houston Center
04:21PM 29.9933 -95.0961 270° West 259 298 3,900 -600 Descending Houston Center
04:22PM 29.9939 -95.1358 271° West 252 290 3,400 -720 Descending Houston Center